Cedar Hills, Utah
Current Conditions -  °F | °C
As of 5:15 AM on Friday 24 Oct 2014 (Local Time) from KPVU Reporting Station
Clear Clear  
Wind Chill: 50°   Ceiling: Unl
Heat Index: 50°   Visibility: 10mi
Dew Point: 30°   Wind: 8mph
Humidity: 47%   Direction: 120°ESE
Pressure: 30.15"   Gusts: NA
Location:  40.3798°N, 111.741°W
Report Text: KPVU 241115Z AUTO 12007KT 10SM CLR 10/M01 A3015 RMK AO1
Loading
Personal Weather Stations






























Interactive Weather Map
Tropical Storm Tracking
New forecast layout! Learn more

10-Day Weather Forecast

Advertisements
Track Severe Weather on mobile